Time;durP1;ratioP1;P1;durP2;ratioP2;P2;SDS_P1;SDS_P2;PMS_P1;PMS_P2;Temp;Humidity;BMP_temperature;BMP_pressure;BME280_temperature;BME280_humidity;BME280_pressure;Samples;Min_cycle;Max_cycle;Signal;HPM_P1;HPM_P2
2021/01/12 00:00:16;;;;;;;25.43;9.13;;;;;;;2.61;98.23;99737.44;5137184;27;20984;-61
2021/01/12 00:02:44;;;;;;;16.07;8.43;;;;;;;2.60;98.35;99731.47;5138986;27;20458;-60
2021/01/12 00:05:11;;;;;;;17.50;7.97;;;;;;;2.61;98.40;99705.19;5108254;27;20856;-59
2021/01/12 00:07:38;;;;;;;29.67;13.80;;;;;;;2.66;98.32;99718.22;5138801;27;20462;-61
2021/01/12 00:10:06;;;;;;;20.17;10.30;;;;;;;2.66;98.04;99703.78;5109128;27;20469;-60
2021/01/12 00:12:34;;;;;;;19.03;9.13;;;;;;;2.72;98.34;99702.38;5138861;27;20467;-60
2021/01/12 00:15:00;;;;;;;26.43;9.60;;;;;;;2.74;98.29;99708.44;5101583;27;20531;-62
2021/01/12 00:17:27;;;;;;;29.53;14.27;;;;;;;2.73;98.41;99687.19;5138077;27;20430;-60
2021/01/12 00:19:55;;;;;;;21.00;9.27;;;;;;;2.76;98.40;99692.44;5129874;27;20485;-58
2021/01/12 00:22:21;;;;;;;19.20;8.60;;;;;;;2.77;98.60;99699.28;5138749;27;20538;-59
2021/01/12 00:24:49;;;;;;;21.03;10.70;;;;;;;2.80;98.27;99696.94;5136470;27;20475;-55
2021/01/12 00:27:17;;;;;;;14.43;7.27;;;;;;;2.79;98.61;99690.09;5138508;27;20468;-58
2021/01/12 00:29:44;;;;;;;24.17;10.90;;;;;;;2.86;98.70;99691.28;5137155;27;20559;-56
2021/01/12 00:32:15;;;;;;;19.07;8.53;;;;;;;2.90;98.41;99697.44;5137822;27;20433;-56
2021/01/12 00:34:41;;;;;;;20.60;10.17;;;;;;;2.92;98.53;99695.88;5135832;27;20783;-59
2021/01/12 00:37:09;;;;;;;30.27;13.37;;;;;;;2.94;98.49;99684.09;5138696;27;20523;-60
2021/01/12 00:39:36;;;;;;;34.07;10.17;;;;;;;2.98;98.48;99680.91;5136392;27;20850;-57
2021/01/12 00:42:03;;;;;;;21.47;10.30;;;;;;;3.01;98.44;99681.06;5138403;27;20470;-59
2021/01/12 00:44:29;;;;;;;18.17;8.07;;;;;;;3.07;98.45;99673.75;5135867;27;20502;-57
2021/01/12 00:46:56;;;;;;;23.97;10.00;;;;;;;3.08;98.49;99678.06;5138157;27;20563;-58
2021/01/12 00:49:24;;;;;;;21.27;9.83;;;;;;;3.13;98.59;99665.56;5136256;27;20491;-58
2021/01/12 00:51:51;;;;;;;28.03;11.60;;;;;;;3.15;98.62;99663.09;5138278;27;20555;-60
2021/01/12 00:54:21;;;;;;;27.43;9.70;;;;;;;3.18;98.70;99653.09;5135989;27;20480;-55
2021/01/12 00:56:48;;;;;;;22.47;10.37;;;;;;;3.22;98.86;99649.88;5137919;27;20511;-58
2021/01/12 00:59:15;;;;;;;22.83;10.67;;;;;;;3.22;98.71;99648.22;5136126;27;20494;-56
2021/01/12 01:01:42;;;;;;;20.47;9.07;;;;;;;3.25;98.94;99655.16;5137513;27;20465;-56
2021/01/12 01:04:11;;;;;;;35.90;13.73;;;;;;;3.28;98.63;99650.22;5135593;27;20895;-57
2021/01/12 01:06:38;;;;;;;19.77;8.07;;;;;;;3.32;98.51;99639.41;5137778;27;20488;-59
2021/01/12 01:09:04;;;;;;;23.80;10.43;;;;;;;3.36;98.42;99646.41;5136163;27;20486;-55
2021/01/12 01:11:32;;;;;;;21.13;8.90;;;;;;;3.41;98.08;99639.00;5137899;27;20452;-59
2021/01/12 01:13:59;;;;;;;23.67;9.07;;;;;;;3.45;98.04;99623.09;5135550;27;20558;-61
2021/01/12 01:16:31;;;;;;;18.67;8.87;;;;;;;3.46;98.04;99639.25;5137370;27;20469;-60
2021/01/12 01:18:57;;;;;;;20.90;8.40;;;;;;;3.50;98.02;99602.91;5135857;27;20499;-54
2021/01/12 01:21:24;;;;;;;21.63;11.13;;;;;;;3.59;97.48;99636.53;5137902;27;20457;-58
2021/01/12 01:23:51;;;;;;;24.63;10.57;;;;;;;3.62;97.22;99616.28;5135749;27;20944;-58
2021/01/12 01:26:18;;;;;;;18.40;9.90;;;;;;;3.60;97.56;99602.56;5136668;27;20459;-59
2021/01/12 01:28:46;;;;;;;15.27;5.83;;;;;;;3.60;97.53;99615.31;5134915;27;20547;-58
2021/01/12 01:31:12;;;;;;;16.37;7.50;;;;;;;3.61;97.66;99616.22;5137347;27;20547;-58
2021/01/12 01:33:39;;;;;;;19.80;8.47;;;;;;;3.60;97.85;99617.88;5135717;27;20468;-57
2021/01/12 01:36:09;;;;;;;11.50;6.40;;;;;;;3.60;97.95;99602.56;5137074;27;20551;-52
2021/01/12 01:38:36;;;;;;;16.43;6.60;;;;;;;3.60;97.99;99607.66;5135463;27;20472;-60
2021/01/12 01:41:04;;;;;;;15.33;7.10;;;;;;;3.61;97.98;99612.00;5137377;27;20486;-55
2021/01/12 01:43:31;;;;;;;16.60;6.67;;;;;;;3.67;97.86;99597.78;5136311;27;20467;-57
2021/01/12 01:45:59;;;;;;;13.60;6.87;;;;;;;3.67;97.94;99600.31;5136999;27;20792;-56
2021/01/12 01:48:26;;;;;;;16.00;8.17;;;;;;;3.70;97.83;99600.50;5135063;27;20813;-56
2021/01/12 01:50:53;;;;;;;14.10;5.77;;;;;;;3.70;97.74;99592.84;5137212;27;20456;-59
2021/01/12 01:53:19;;;;;;;13.27;4.90;;;;;;;3.71;97.75;99603.13;5136073;27;20452;-56
2021/01/12 01:55:52;;;;;;;10.13;5.00;;;;;;;3.71;97.86;99599.69;5136352;27;21012;-57
2021/01/12 01:58:20;;;;;;;20.40;9.67;;;;;;;3.73;97.74;99596.44;5136090;27;20471;-60
2021/01/12 02:00:47;;;;;;;16.40;6.87;;;;;;;3.74;97.58;99594.75;5136873;27;20502;-59
2021/01/12 02:03:19;;;;;;;11.03;5.13;;;;;;;3.74;97.89;99592.22;5135335;27;20499;-59
2021/01/12 02:05:50;;;;;;;15.77;5.20;;;;;;;3.74;97.93;99595.63;5136366;27;20515;-59
2021/01/12 02:08:21;;;;;;;20.00;8.33;;;;;;;3.75;98.72;99586.31;5135265;27;20841;-57
2021/01/12 02:10:49;;;;;;;10.83;5.50;;;;;;;3.80;97.69;99600.19;5136926;27;20542;-56
2021/01/12 02:13:18;;;;;;;29.23;13.60;;;;;;;3.81;97.45;99585.72;5134596;28;20515;-57
2021/01/12 02:15:45;;;;;;;14.83;6.17;;;;;;;3.81;97.59;99580.63;5136498;28;20790;-57
2021/01/12 02:18:12;;;;;;;11.27;5.50;;;;;;;3.77;97.75;99585.59;5135745;27;20478;-56
2021/01/12 02:20:41;;;;;;;18.17;8.67;;;;;;;3.76;97.96;99582.94;5136279;28;20468;-57
2021/01/12 02:23:10;;;;;;;12.90;6.07;;;;;;;3.76;97.82;99578.72;5136009;28;20770;-60
2021/01/12 02:25:38;;;;;;;21.07;9.30;;;;;;;3.73;98.07;99582.78;5130299;28;20484;-58
2021/01/12 02:28:08;;;;;;;11.10;4.90;;;;;;;3.74;98.27;99589.66;5130700;27;20513;-61
2021/01/12 02:30:35;;;;;;;15.17;6.57;;;;;;;3.75;98.28;99579.50;5136629;28;20444;-60
2021/01/12 02:33:02;;;;;;;11.60;6.60;;;;;;;3.75;98.35;99596.50;5134974;28;20479;-58
2021/01/12 02:35:30;;;;;;;10.87;5.17;;;;;;;3.74;98.36;99576.91;5136392;28;20786;-56
2021/01/12 02:37:58;;;;;;;11.50;6.40;;;;;;;3.74;98.23;99580.31;5135256;27;20480;-55
2021/01/12 02:40:25;;;;;;;11.83;6.70;;;;;;;3.73;98.48;99582.78;5140548;27;20507;-58
2021/01/12 02:42:52;;;;;;;12.30;6.57;;;;;;;3.74;98.59;99575.22;5138699;27;20579;-53
2021/01/12 02:45:20;;;;;;;15.20;6.40;;;;;;;3.71;98.73;99569.09;5140386;27;20613;-57
2021/01/12 02:47:48;;;;;;;7.97;3.13;;;;;;;3.73;98.95;99570.03;5139055;27;20496;-56
2021/01/12 02:50:15;;;;;;;9.20;5.07;;;;;;;3.73;98.78;99568.34;5140554;27;20456;-56
2021/01/12 02:52:42;;;;;;;9.53;5.30;;;;;;;3.74;98.95;99570.09;5138854;27;20476;-58
2021/01/12 02:55:11;;;;;;;16.73;5.33;;;;;;;3.72;98.94;99551.31;5139206;27;20552;-54
2021/01/12 02:57:38;;;;;;;6.40;3.50;;;;;;;3.74;99.07;99543.72;5118346;28;20473;-52
2021/01/12 03:00:07;;;;;;;13.20;5.17;;;;;;;3.75;98.85;99533.59;5119745;28;20453;-59
2021/01/12 03:02:34;;;;;;;7.10;3.73;;;;;;;3.76;99.00;99537.03;5118086;28;20552;-55
2021/01/12 03:05:01;;;;;;;10.17;4.67;;;;;;;3.76;99.15;99534.47;5119102;28;20457;-55
2021/01/12 03:07:28;;;;;;;13.70;5.53;;;;;;;3.79;98.96;99547.38;5118119;28;20479;-54
2021/01/12 03:09:54;;;;;;;12.10;4.90;;;;;;;3.80;98.87;99523.63;5119470;28;20427;-61
2021/01/12 03:12:21;;;;;;;13.20;6.03;;;;;;;3.77;98.93;99523.47;5118179;28;20504;-58
2021/01/12 03:14:48;;;;;;;7.27;4.23;;;;;;;3.79;98.91;99516.75;5119085;28;20463;-59
2021/01/12 03:17:15;;;;;;;7.00;3.27;;;;;;;3.83;98.96;99523.75;5117995;28;20527;-52
2021/01/12 03:19:42;;;;;;;9.80;4.30;;;;;;;3.85;98.84;99513.63;5119327;28;20522;-56
2021/01/12 03:22:09;;;;;;;8.33;4.03;;;;;;;3.82;98.89;99514.38;5117637;28;20551;-58
2021/01/12 03:24:36;;;;;;;11.20;5.10;;;;;;;3.84;98.89;99511.91;5139143;27;20547;-54
2021/01/12 03:27:03;;;;;;;8.97;5.00;;;;;;;3.84;98.90;99507.66;5138402;27;20468;-54
2021/01/12 03:29:30;;;;;;;13.87;5.40;;;;;;;3.83;98.65;99511.00;5139732;27;20466;-57
2021/01/12 03:31:56;;;;;;;13.03;6.43;;;;;;;3.81;99.05;99512.63;5137986;27;20442;-58
2021/01/12 03:34:24;;;;;;;6.63;4.00;;;;;;;3.83;98.95;99503.34;5139322;27;20509;-54
2021/01/12 03:36:51;;;;;;;10.17;5.13;;;;;;;3.84;98.76;99494.03;5138859;27;20503;-59
2021/01/12 03:39:18;;;;;;;12.93;6.07;;;;;;;3.85;99.03;99501.72;5139803;27;20491;-57
2021/01/12 03:41:44;;;;;;;19.00;8.57;;;;;;;3.87;99.01;99497.59;5138373;27;20784;-58
2021/01/12 03:44:11;;;;;;;12.33;6.23;;;;;;;3.87;99.12;99505.25;5139285;27;20510;-57
2021/01/12 03:46:38;;;;;;;7.03;3.20;;;;;;;3.88;99.10;99496.78;5137315;27;20484;-58
2021/01/12 03:49:06;;;;;;;10.33;5.20;;;;;;;3.89;99.10;99511.31;5139129;27;20917;-57
2021/01/12 03:51:34;;;;;;;19.00;10.23;;;;;;;3.87;99.21;99512.91;5137742;27;20466;-58
2021/01/12 03:54:01;;;;;;;18.33;10.23;;;;;;;3.88;99.29;99512.09;5139245;27;20511;-55
2021/01/12 03:56:28;;;;;;;18.87;8.03;;;;;;;3.91;99.55;99506.28;5138882;27;20468;-56
2021/01/12 03:58:55;;;;;;;11.63;5.70;;;;;;;3.90;99.58;99507.09;5139278;27;20490;-61
2021/01/12 04:01:22;;;;;;;14.27;7.10;;;;;;;3.92;99.70;99503.81;5139047;27;20464;-57
2021/01/12 04:03:49;;;;;;;6.00;3.70;;;;;;;3.91;99.36;99496.94;5138518;27;20464;-54
2021/01/12 04:06:16;;;;;;;13.00;6.30;;;;;;;3.89;99.41;99503.66;5138987;27;20576;-58
2021/01/12 04:08:45;;;;;;;10.23;4.93;;;;;;;3.93;99.49;99502.13;5137625;27;20935;-57
2021/01/12 04:11:13;;;;;;;8.70;3.80;;;;;;;3.94;99.61;99505.56;5139040;27;20459;-58
2021/01/12 04:13:39;;;;;;;21.07;10.83;;;;;;;3.96;99.79;99512.50;5137825;27;20504;-56
2021/01/12 04:16:07;;;;;;;18.17;7.97;;;;;;;3.97;99.82;99518.44;5138674;27;20964;-61
2021/01/12 04:18:34;;;;;;;14.57;7.47;;;;;;;3.98;99.67;99503.22;5137649;27;20476;-59
2021/01/12 04:21:01;;;;;;;13.07;6.70;;;;;;;4.00;100.00;99516.06;5138659;27;20889;-56
2021/01/12 04:23:29;;;;;;;10.43;5.63;;;;;;;4.00;100.00;99513.50;5137555;27;20476;-57
2021/01/12 04:25:56;;;;;;;10.60;5.30;;;;;;;3.98;100.00;99513.44;5138331;27;20480;-56
2021/01/12 04:28:24;;;;;;;12.10;6.20;;;;;;;3.96;100.00;99524.38;5137232;27;20471;-60
2021/01/12 04:30:50;;;;;;;9.57;6.10;;;;;;;4.00;100.00;99526.28;5138667;27;20448;-57
2021/01/12 04:33:17;;;;;;;8.73;4.63;;;;;;;3.99;99.99;99520.28;5137312;27;20508;-56
2021/01/12 04:35:43;;;;;;;11.60;4.37;;;;;;;4.00;99.99;99521.16;5137675;27;20472;-57
2021/01/12 04:38:10;;;;;;;9.37;4.80;;;;;;;3.88;99.68;99519.75;5135674;27;20475;-61
2021/01/12 04:40:37;;;;;;;7.97;3.33;;;;;;;3.84;99.48;99509.34;5138307;27;20484;-57
2021/01/12 04:43:04;;;;;;;7.70;3.70;;;;;;;3.84;99.42;99515.31;5136871;27;20506;-57
2021/01/12 04:45:31;;;;;;;5.00;2.47;;;;;;;3.73;98.91;99522.44;5138049;27;20484;-61
2021/01/12 04:47:58;;;;;;;5.00;2.50;;;;;;;3.77;99.06;99519.25;5137273;27;20776;-61
2021/01/12 04:50:25;;;;;;;7.77;3.03;;;;;;;3.68;99.00;99512.81;5138047;27;20448;-60
2021/01/12 04:52:52;;;;;;;9.60;2.57;;;;;;;3.69;98.96;99519.66;5137514;27;20475;-56
2021/01/12 04:55:20;;;;;;;5.33;2.03;;;;;;;3.71;99.14;99520.59;5137714;27;20478;-60
2021/01/12 04:57:48;;;;;;;4.97;2.57;;;;;;;3.70;99.14;99518.84;5137285;27;20476;-54
2021/01/12 05:00:17;;;;;;;5.10;2.70;;;;;;;3.74;99.14;99518.22;5138225;27;20542;-57
2021/01/12 05:02:55;;;;;;;4.63;2.50;;;;;;;3.74;99.29;99513.97;5136361;27;20499;-58
2021/01/12 05:05:27;;;;;;;6.00;2.80;;;;;;;3.71;99.11;99518.06;5137682;27;20476;-55
2021/01/12 05:07:56;;;;;;;5.10;2.73;;;;;;;3.67;98.94;99516.13;5136575;27;20909;-61
2021/01/12 05:10:23;;;;;;;11.87;2.90;;;;;;;3.71;99.09;99523.16;5137870;27;20460;-57
2021/01/12 05:12:50;;;;;;;8.13;4.27;;;;;;;3.70;98.79;99511.19;5136741;27;20551;-59
2021/01/12 05:15:19;;;;;;;5.17;2.40;;;;;;;3.54;98.54;99514.66;5137572;27;20543;-55
2021/01/12 05:17:49;;;;;;;3.50;2.20;;;;;;;3.57;98.13;99515.69;5136516;27;20780;-54
2021/01/12 05:20:23;;;;;;;9.10;2.60;;;;;;;3.53;98.13;99516.31;5138205;27;20474;-62
2021/01/12 05:22:55;;;;;;;3.73;2.20;;;;;;;3.53;98.16;99523.97;5136536;27;20497;-56
2021/01/12 05:25:22;;;;;;;9.93;3.37;;;;;;;3.50;98.06;99518.75;5136687;27;20472;-57
2021/01/12 05:27:53;;;;;;;5.57;2.70;;;;;;;3.54;98.34;99514.66;5136237;27;20474;-55
2021/01/12 05:30:27;;;;;;;30.07;13.93;;;;;;;3.62;98.33;99516.81;5137707;27;20757;-58
2021/01/12 05:32:54;;;;;;;5.50;2.50;;;;;;;3.53;97.83;99518.03;5136185;27;20476;-60
2021/01/12 05:35:21;;;;;;;7.90;2.90;;;;;;;3.57;97.96;99520.78;5136971;27;20581;-61
2021/01/12 05:37:47;;;;;;;6.93;2.20;;;;;;;3.53;97.85;99523.13;5136023;27;20464;-58
2021/01/12 05:40:15;;;;;;;4.60;2.53;;;;;;;3.56;98.14;99524.16;5137505;27;20957;-53
2021/01/12 05:42:42;;;;;;;9.50;4.10;;;;;;;3.44;97.97;99532.03;5136243;27;20478;-55
2021/01/12 05:45:09;;;;;;;2.90;0.93;;;;;;;3.09;96.37;99541.31;5137059;27;20480;-58
2021/01/12 05:47:37;;;;;;;6.00;1.03;;;;;;;2.76;95.55;99542.16;5135412;27;20480;-57
2021/01/12 05:50:04;;;;;;;1.80;0.63;;;;;;;2.69;95.85;99542.63;5137383;27;20479;-54
2021/01/12 05:52:35;;;;;;;3.30;1.10;;;;;;;2.64;95.82;99550.00;5135815;27;20559;-54
2021/01/12 05:55:03;;;;;;;7.73;3.30;;;;;;;2.73;95.69;99552.19;5137059;27;20531;-58
2021/01/12 05:57:31;;;;;;;2.47;0.67;;;;;;;2.52;95.07;99552.75;5135793;27;20480;-55
2021/01/12 06:00:03;;;;;;;10.83;4.70;;;;;;;2.41;95.03;99553.84;5136971;27;20742;-53
2021/01/12 06:02:31;;;;;;;7.37;3.53;;;;;;;2.33;94.54;99557.63;5125148;27;20510;-59
2021/01/12 06:04:59;;;;;;;1.53;0.63;;;;;;;2.18;93.99;99566.16;5136458;27;20449;-51
2021/01/12 06:07:27;;;;;;;3.20;1.10;;;;;;;2.14;94.29;99562.56;5135664;27;20490;-58
2021/01/12 06:09:55;;;;;;;11.40;4.20;;;;;;;2.23;94.82;99569.84;5136814;28;20547;-54
2021/01/12 06:12:25;;;;;;;3.47;0.70;;;;;;;2.19;94.44;99577.25;5136016;27;20774;-58
2021/01/12 06:14:53;;;;;;;4.07;0.90;;;;;;;2.15;95.01;99577.03;5136403;27;20882;-57
2021/01/12 06:17:19;;;;;;;2.57;0.80;;;;;;;1.96;95.01;99581.88;5135735;27;20558;-56
2021/01/12 06:19:47;;;;;;;2.20;0.57;;;;;;;1.85;94.12;99588.91;5136746;28;20448;-60
2021/01/12 06:22:16;;;;;;;8.83;1.30;;;;;;;1.73;93.82;99599.22;5135680;27;20973;-60
2021/01/12 06:24:54;;;;;;;6.50;2.10;;;;;;;1.52;93.41;99607.34;5136550;28;20948;-56
2021/01/12 06:27:24;;;;;;;6.17;2.60;;;;;;;1.43;93.25;99602.59;5135256;27;20961;-54
2021/01/12 06:29:52;;;;;;;2.17;0.40;;;;;;;1.29;92.17;99596.66;5136542;28;20878;-62
2021/01/12 06:32:21;;;;;;;2.90;0.70;;;;;;;1.23;92.26;99601.38;5135530;27;20515;-54
2021/01/12 06:34:50;;;;;;;4.23;0.60;;;;;;;1.23;92.07;99603.06;5136525;28;20514;-57
2021/01/12 06:37:18;;;;;;;2.80;0.80;;;;;;;1.27;92.64;99605.00;5135376;27;20547;-58
2021/01/12 06:39:46;;;;;;;3.50;0.57;;;;;;;1.34;93.05;99605.44;5136631;28;20223;-56
2021/01/12 06:42:15;;;;;;;2.23;0.40;;;;;;;1.42;93.07;99605.91;5135168;27;20784;-62
2021/01/12 06:44:42;;;;;;;13.17;4.60;;;;;;;1.42;93.03;99605.03;5136582;28;20458;-59
2021/01/12 06:47:10;;;;;;;19.80;4.37;;;;;;;1.43;93.38;99601.72;5134516;27;20906;-58
2021/01/12 06:49:37;;;;;;;1.67;0.47;;;;;;;1.56;93.68;99598.22;5136746;28;20452;-57
2021/01/12 06:52:06;;;;;;;3.53;0.60;;;;;;;1.59;93.52;99598.44;5134899;27;20559;-57
2021/01/12 06:54:34;;;;;;;15.67;4.00;;;;;;;1.56;93.21;99606.75;5136190;28;20454;-57
2021/01/12 06:57:03;;;;;;;3.67;1.10;;;;;;;1.77;93.80;99591.00;5135107;27;20455;-56
2021/01/12 06:59:34;;;;;;;5.43;2.13;;;;;;;1.68;92.29;99596.41;5136547;28;20878;-58
2021/01/12 07:02:05;;;;;;;3.43;0.90;;;;;;;1.79;92.69;99599.56;5135118;27;20497;-59
2021/01/12 07:04:31;;;;;;;6.30;0.90;;;;;;;1.81;92.40;99599.66;5136220;28;20882;-59
2021/01/12 07:07:00;;;;;;;5.80;1.57;;;;;;;1.75;91.66;99588.34;5135201;27;20475;-56
2021/01/12 07:09:27;;;;;;;6.60;3.20;;;;;;;1.71;92.81;99594.06;5136453;28;20452;-55
2021/01/12 07:12:05;;;;;;;16.13;3.47;;;;;;;1.73;93.39;99597.56;5135017;27;20475;-59
2021/01/12 07:14:32;;;;;;;2.33;0.70;;;;;;;1.78;93.49;99595.28;5136296;28;20539;-61
2021/01/12 07:17:06;;;;;;;3.90;1.00;;;;;;;1.66;92.85;99598.00;5135318;27;20474;-57
2021/01/12 07:19:36;;;;;;;4.80;1.23;;;;;;;1.64;93.50;99598.69;5136326;28;20463;-58
2021/01/12 07:22:16;;;;;;;5.50;0.90;;;;;;;1.63;93.63;99615.59;5135143;27;20470;-62
2021/01/12 07:24:44;;;;;;;7.67;1.70;;;;;;;1.58;93.70;99607.72;5135510;27;20447;-59
2021/01/12 07:27:14;;;;;;;4.00;1.30;;;;;;;1.69;93.99;99615.09;5138592;27;20475;-59
2021/01/12 07:29:48;;;;;;;6.40;1.30;;;;;;;1.69;94.01;99621.06;5139912;27;20772;-57
2021/01/12 07:32:26;;;;;;;3.03;0.90;;;;;;;1.70;94.20;99615.16;5138591;27;21181;-61
2021/01/12 07:34:55;;;;;;;8.60;2.60;;;;;;;1.72;93.94;99621.25;5139780;27;20487;-55
2021/01/12 07:37:29;;;;;;;7.30;1.60;;;;;;;1.71;93.70;99627.13;5138132;27;20903;-56
2021/01/12 07:39:56;;;;;;;6.23;2.00;;;;;;;1.69;93.86;99621.06;5139724;27;20484;-57
2021/01/12 07:42:24;;;;;;;6.57;2.07;;;;;;;1.68;94.09;99621.84;5138617;27;20490;-58
2021/01/12 07:44:51;;;;;;;4.63;1.73;;;;;;;1.71;94.03;99628.78;5139303;27;20476;-55
2021/01/12 07:47:18;;;;;;;5.43;2.33;;;;;;;1.71;94.12;99629.66;5138306;27;20479;-57
2021/01/12 07:49:50;;;;;;;2.97;1.27;;;;;;;1.72;93.99;99631.41;5139630;27;20766;-55
2021/01/12 07:52:20;;;;;;;7.43;1.43;;;;;;;1.82;94.25;99634.50;5138161;27;20454;-55
2021/01/12 07:54:47;;;;;;;4.00;1.13;;;;;;;1.78;93.80;99638.53;5139250;27;20824;-53
2021/01/12 07:57:14;;;;;;;7.80;1.30;;;;;;;1.83;93.98;99639.69;5138057;27;20562;-57
2021/01/12 07:59:43;;;;;;;2.53;1.00;;;;;;;1.80;93.73;99641.16;5139480;27;20539;-57
2021/01/12 08:02:09;;;;;;;5.43;1.10;;;;;;;1.68;93.58;99641.28;5137793;27;20507;-60
2021/01/12 08:04:38;;;;;;;3.93;1.30;;;;;;;1.71;93.80;99634.75;5139197;27;21014;-56
2021/01/12 08:07:06;;;;;;;36.27;17.50;;;;;;;1.82;94.54;99644.66;5138002;27;20765;-59
2021/01/12 08:09:32;;;;;;;7.90;1.13;;;;;;;1.75;94.03;99653.63;5139146;27;20543;-56
2021/01/12 08:12:01;;;;;;;6.47;1.53;;;;;;;1.60;93.78;99656.13;5137643;27;20462;-55
2021/01/12 08:14:28;;;;;;;2.90;1.00;;;;;;;1.94;94.80;99652.16;5138962;27;20539;-57
2021/01/12 08:16:56;;;;;;;9.77;1.87;;;;;;;1.80;93.81;99658.97;5137725;27;20944;-57
2021/01/12 08:19:23;;;;;;;9.90;1.40;;;;;;;2.00;94.40;99650.84;5139076;27;20459;-62
2021/01/12 08:21:51;;;;;;;3.70;1.50;;;;;;;1.94;93.63;99659.78;5137613;27;20513;-59
2021/01/12 08:24:21;;;;;;;5.93;2.10;;;;;;;2.20;93.04;99661.28;5138687;27;20444;-57
2021/01/12 08:26:48;;;;;;;9.10;1.90;;;;;;;2.13;92.79;99667.72;5137375;27;20502;-57
2021/01/12 08:29:19;;;;;;;9.03;1.97;;;;;;;2.31;92.42;99668.69;5138946;27;20539;-59
2021/01/12 08:31:49;;;;;;;6.33;2.20;;;;;;;2.23;91.91;99676.75;5137462;27;20476;-60
2021/01/12 08:34:19;;;;;;;8.77;1.77;;;;;;;2.08;91.84;99679.28;5137647;27;20459;-56
2021/01/12 08:36:48;;;;;;;14.40;1.63;;;;;;;2.15;91.71;99675.41;5137297;27;20924;-58
2021/01/12 08:39:24;;;;;;;7.10;2.13;;;;;;;2.00;91.90;99683.06;5138905;27;20426;-57
2021/01/12 08:41:52;;;;;;;11.30;3.43;;;;;;;2.00;92.62;99685.59;5137161;27;20521;-55
2021/01/12 08:44:20;;;;;;;6.53;1.70;;;;;;;1.89;92.42;99690.91;5138261;27;20483;-57
2021/01/12 08:46:47;;;;;;;10.00;1.80;;;;;;;2.00;92.60;99691.56;5136941;27;20477;-60
2021/01/12 08:49:14;;;;;;;12.87;2.47;;;;;;;2.02;92.28;99697.59;5138293;27;20489;-57
2021/01/12 08:51:42;;;;;;;6.87;1.50;;;;;;;2.08;92.29;99694.56;5137079;27;20864;-55
2021/01/12 08:54:14;;;;;;;4.10;1.40;;;;;;;2.16;91.82;99700.09;5138160;27;20457;-58
2021/01/12 08:56:41;;;;;;;10.47;1.70;;;;;;;2.03;91.48;99703.56;5136992;27;20468;-57
2021/01/12 08:59:08;;;;;;;11.10;3.77;;;;;;;2.04;92.16;99709.56;5138247;27;20460;-53
2021/01/12 09:01:38;;;;;;;7.73;1.50;;;;;;;2.07;92.21;99709.72;5136724;27;20497;-57
2021/01/12 09:04:06;;;;;;;13.83;2.40;;;;;;;2.07;91.60;99715.72;5137748;27;20480;-63
2021/01/12 09:06:33;;;;;;;12.10;3.50;;;;;;;2.16;91.59;99716.22;5136900;27;20491;-60
2021/01/12 09:09:12;;;;;;;4.57;1.63;;;;;;;2.07;91.95;99725.88;5138038;27;20486;-54
2021/01/12 09:11:40;;;;;;;4.53;1.90;;;;;;;2.05;91.11;99721.50;5136890;27;20751;-53
2021/01/12 09:14:07;;;;;;;8.57;1.90;;;;;;;1.89;90.91;99735.81;5137270;27;20736;-54
2021/01/12 09:16:34;;;;;;;10.30;2.17;;;;;;;1.96;91.52;99743.06;5136845;27;20480;-61
2021/01/12 09:19:15;;;;;;;9.93;2.20;;;;;;;1.91;90.83;99731.72;5137753;27;20526;-56
2021/01/12 09:21:42;;;;;;;5.90;1.50;;;;;;;1.64;91.42;99739.41;5136228;27;20430;-60
2021/01/12 09:24:16;;;;;;;5.30;1.57;;;;;;;1.75;92.04;99746.03;5137253;27;20458;-62
2021/01/12 09:26:43;;;;;;;8.47;2.07;;;;;;;1.61;91.96;99739.25;5136307;27;20571;-57
2021/01/12 09:29:09;;;;;;;9.23;1.90;;;;;;;1.54;92.05;99747.28;5137861;27;20459;-54
2021/01/12 09:31:46;;;;;;;8.13;2.00;;;;;;;1.60;91.93;99747.66;5136519;27;20452;-57
2021/01/12 09:34:19;;;;;;;10.63;1.93;;;;;;;1.84;91.16;99752.50;5137265;27;20452;-59
2021/01/12 09:36:46;;;;;;;6.73;1.90;;;;;;;1.83;90.76;99754.16;5134512;27;20474;-57
2021/01/12 09:39:12;;;;;;;6.77;1.60;;;;;;;1.78;91.32;99747.03;5137413;27;20458;-48
2021/01/12 09:41:40;;;;;;;12.93;1.93;;;;;;;1.88;91.45;99751.88;5136831;27;20446;-59
2021/01/12 09:44:08;;;;;;;10.90;1.77;;;;;;;1.92;91.49;99753.84;5137099;27;20458;-54
2021/01/12 09:46:34;;;;;;;3.63;1.50;;;;;;;1.92;91.38;99758.91;5136503;27;20491;-51
2021/01/12 09:49:01;;;;;;;13.23;1.50;;;;;;;1.89;91.16;99761.25;5137045;27;20483;-59
2021/01/12 09:51:28;;;;;;;7.03;1.67;;;;;;;2.09;90.49;99764.13;5136912;27;20463;-61
2021/01/12 09:53:54;;;;;;;6.10;1.43;;;;;;;1.92;89.96;99756.38;5136989;27;20490;-58
2021/01/12 09:56:21;;;;;;;8.00;1.70;;;;;;;1.91;90.37;99753.72;5137139;27;20773;-59
2021/01/12 09:58:52;;;;;;;7.33;1.30;;;;;;;1.99;90.07;99766.13;5135946;27;20563;-59
2021/01/12 10:01:20;;;;;;;10.63;2.80;;;;;;;2.15;90.16;99765.38;5137181;27;20505;-62
2021/01/12 10:03:47;;;;;;;15.03;2.57;;;;;;;2.04;90.09;99761.31;5135760;27;20464;-60
2021/01/12 10:06:18;;;;;;;10.37;1.67;;;;;;;2.08;90.87;99759.84;5136545;27;20961;-54
2021/01/12 10:08:46;;;;;;;16.97;6.40;;;;;;;2.08;90.49;99762.38;5136206;27;20783;-59
2021/01/12 10:11:14;;;;;;;8.20;1.10;;;;;;;1.99;89.46;99763.59;5137262;28;20452;-56
2021/01/12 10:13:40;;;;;;;11.87;2.67;;;;;;;2.05;90.07;99767.28;5136260;27;20555;-60
2021/01/12 10:16:08;;;;;;;7.53;1.83;;;;;;;2.05;89.67;99757.97;5136665;28;20502;-59
2021/01/12 10:18:35;;;;;;;12.27;4.57;;;;;;;2.12;89.51;99769.41;5136093;27;20476;-56
2021/01/12 10:21:01;;;;;;;12.00;2.10;;;;;;;2.07;88.80;99770.81;5137048;28;20489;-55
2021/01/12 10:23:28;;;;;;;7.60;0.93;;;;;;;1.99;87.62;99763.59;5133370;27;20464;-55
2021/01/12 10:25:55;;;;;;;5.67;1.20;;;;;;;2.17;88.32;99768.03;5136086;27;20472;-59
2021/01/12 10:28:22;;;;;;;7.37;1.90;;;;;;;2.15;88.27;99767.94;5135293;28;20492;-56
2021/01/12 10:31:05;;;;;;;4.97;1.37;;;;;;;2.09;88.38;99770.09;5136818;28;20521;-57
2021/01/12 10:33:33;;;;;;;20.30;7.83;;;;;;;2.21;87.06;99764.84;5135360;27;20478;-58
2021/01/12 10:36:01;;;;;;;6.40;1.40;;;;;;;2.16;87.48;99771.38;5136463;28;20473;-55
2021/01/12 10:38:29;;;;;;;30.20;11.77;;;;;;;2.29;88.33;99771.31;5135235;27;20484;-52
2021/01/12 10:40:55;;;;;;;28.03;9.87;;;;;;;2.31;87.26;99770.50;5136445;28;20452;-57
2021/01/12 10:43:24;;;;;;;12.30;1.30;;;;;;;2.29;85.78;99768.75;5135302;28;20548;-53
2021/01/12 10:45:51;;;;;;;16.73;5.40;;;;;;;2.43;86.38;99766.16;5136202;28;20472;-60
2021/01/12 10:48:18;;;;;;;6.30;1.13;;;;;;;2.42;85.93;99764.41;5134799;28;20487;-57
2021/01/12 10:50:46;;;;;;;5.10;1.60;;;;;;;2.31;85.93;99762.88;5136486;28;20783;-54
2021/01/12 10:53:13;;;;;;;7.73;2.07;;;;;;;2.32;85.55;99757.88;5131191;28;20936;-53
2021/01/12 10:55:40;;;;;;;10.33;2.57;;;;;;;2.55;86.13;99758.31;5136136;28;20563;-57
2021/01/12 10:58:06;;;;;;;6.20;1.00;;;;;;;2.47;85.01;99768.09;5135239;27;20476;-61
2021/01/12 11:00:34;;;;;;;8.00;1.43;;;;;;;2.36;83.02;99758.94;5137494;27;20546;-54
2021/01/12 11:03:06;;;;;;;2.70;0.80;;;;;;;2.32;84.19;99762.09;5139010;27;20479;-61
2021/01/12 11:05:38;;;;;;;7.10;1.43;;;;;;;2.31;83.49;99757.78;5140039;27;20604;-56
2021/01/12 11:08:06;;;;;;;9.13;2.60;;;;;;;2.32;83.62;99754.44;5138850;27;20555;-52
2021/01/12 11:10:33;;;;;;;8.70;1.30;;;;;;;2.41;84.25;99762.63;5140451;27;20458;-55
2021/01/12 11:13:01;;;;;;;12.03;1.07;;;;;;;2.40;84.11;99760.84;5138046;27;20506;-57
2021/01/12 11:15:29;;;;;;;5.00;1.40;;;;;;;2.38;83.31;99768.44;5139424;27;20476;-58
2021/01/12 11:17:57;;;;;;;3.30;0.97;;;;;;;2.35;83.13;99770.78;5138843;27;20451;-54
2021/01/12 11:20:24;;;;;;;6.90;1.40;;;;;;;2.33;81.68;99764.72;5140600;27;20531;-57
2021/01/12 11:22:51;;;;;;;3.93;0.77;;;;;;;2.38;82.63;99762.44;5138998;27;20763;-55
2021/01/12 11:25:19;;;;;;;9.73;1.57;;;;;;;2.43;82.60;99761.06;5139408;27;20948;-54
2021/01/12 11:27:46;;;;;;;15.73;1.20;;;;;;;2.49;82.16;99763.97;5138708;27;20477;-51
2021/01/12 11:30:15;;;;;;;9.13;1.00;;;;;;;2.50;81.34;99763.16;5139921;27;20537;-58
2021/01/12 11:32:46;;;;;;;8.73;1.80;;;;;;;2.57;82.03;99751.69;5137667;27;20476;-52
2021/01/12 11:35:16;;;;;;;10.50;2.27;;;;;;;2.58;81.41;99755.09;5139206;27;20893;-53
2021/01/12 11:37:45;;;;;;;6.20;1.70;;;;;;;2.59;81.86;99752.63;5138382;27;20508;-49
2021/01/12 11:40:13;;;;;;;7.47;1.37;;;;;;;2.53;80.65;99755.72;5139501;27;20484;-56